Time;durP1;ratioP1;P1;durP2;ratioP2;P2;SDS_P1;SDS_P2;PMS_P1;PMS_P2;Temp;Humidity;BMP_temperature;BMP_pressure;BME280_temperature;BME280_humidity;BME280_pressure;Samples;Min_cycle;Max_cycle;Signal;HPM_P1;HPM_P2
2021/10/11 00:01:14;;;;;;;17.67;9.90;;;;;;;2.81;100.00;97080.81;4952861;28;20061;-77
2021/10/11 00:03:52;;;;;;;17.73;10.20;;;;;;;2.81;100.00;97091.19;4956534;28;20043;-76
2021/10/11 00:06:17;;;;;;;18.60;10.87;;;;;;;2.86;100.00;97088.34;4953280;28;20034;-77
2021/10/11 00:08:43;;;;;;;21.53;12.23;;;;;;;2.83;100.00;97091.97;4937065;28;20821;-77
2021/10/11 00:11:14;;;;;;;16.27;9.90;;;;;;;2.78;100.00;97082.75;4954094;28;20043;-76
2021/10/11 00:13:40;;;;;;;14.70;9.43;;;;;;;2.75;100.00;97088.13;4961725;28;20038;-76
2021/10/11 00:16:05;;;;;;;17.37;10.47;;;;;;;2.81;100.00;97091.19;4942804;28;21273;-77
2021/10/11 00:18:34;;;;;;;18.43;10.53;;;;;;;2.70;100.00;97088.41;4936793;28;20042;-76
2021/10/11 00:21:00;;;;;;;16.63;10.77;;;;;;;2.59;100.00;97083.84;4970057;28;20018;-77
2021/10/11 00:23:25;;;;;;;16.63;9.93;;;;;;;2.56;100.00;97085.78;4959457;28;21460;-76
2021/10/11 00:26:00;;;;;;;17.27;10.10;;;;;;;2.53;100.00;97084.19;4953190;28;20084;-77
2021/10/11 00:28:26;;;;;;;17.63;11.27;;;;;;;2.44;100.00;97082.13;4959354;28;20027;-76
2021/10/11 00:30:52;;;;;;;18.67;11.10;;;;;;;2.40;100.00;97083.22;4951111;28;20449;-76
2021/10/11 00:33:17;;;;;;;17.17;11.07;;;;;;;2.40;100.00;97088.41;4949187;28;20046;-77
2021/10/11 00:35:43;;;;;;;17.33;10.93;;;;;;;2.44;100.00;97089.91;4956377;28;20034;-77
2021/10/11 00:38:09;;;;;;;18.90;11.43;;;;;;;2.37;100.00;97083.41;4937974;28;20038;-77
2021/10/11 00:40:51;;;;;;;19.23;10.97;;;;;;;2.26;100.00;97091.81;4955413;28;20129;-77
2021/10/11 00:43:21;;;;;;;13.30;8.23;;;;;;;2.21;100.00;97087.78;4938935;28;20118;-77
2021/10/11 00:45:47;;;;;;;19.17;10.80;;;;;;;2.23;100.00;97089.38;4956188;28;20026;-77
2021/10/11 00:48:13;;;;;;;17.10;10.33;;;;;;;2.18;100.00;97081.03;4959448;28;20480;-76
2021/10/11 00:50:38;;;;;;;15.90;10.57;;;;;;;2.15;100.00;97083.81;4947053;28;20946;-77
2021/10/11 00:53:04;;;;;;;15.13;9.80;;;;;;;2.27;100.00;97090.03;4947200;28;20039;-77
2021/10/11 00:55:30;;;;;;;18.07;10.73;;;;;;;2.24;100.00;97079.84;4940116;28;20063;-76
2021/10/11 00:57:56;;;;;;;15.73;9.30;;;;;;;2.18;100.00;97072.41;4954938;28;20876;-77
2021/10/11 01:00:23;;;;;;;17.00;10.47;;;;;;;2.11;100.00;97067.56;4952641;28;20058;-77
2021/10/11 01:02:49;;;;;;;19.10;10.30;;;;;;;2.25;100.00;97071.16;4955919;28;20039;-77
2021/10/11 01:05:15;;;;;;;14.97;10.03;;;;;;;2.24;100.00;97067.69;4955903;28;20622;-76
2021/10/11 01:07:41;;;;;;;17.30;9.87;;;;;;;2.25;100.00;97060.75;4948490;28;20026;-77
2021/10/11 01:10:07;;;;;;;17.63;10.03;;;;;;;2.25;100.00;97061.59;4954540;28;20517;-77
2021/10/11 01:12:33;;;;;;;18.60;10.77;;;;;;;2.19;100.00;97063.69;4963429;28;20445;-76
2021/10/11 01:14:59;;;;;;;15.13;9.80;;;;;;;2.15;100.00;97057.00;4939479;28;20450;-77
2021/10/11 01:17:25;;;;;;;15.37;9.40;;;;;;;1.87;100.00;97058.56;4977324;28;20537;-77
2021/10/11 01:19:56;;;;;;;15.33;9.77;;;;;;;1.84;100.00;97059.56;4956508;28;20058;-76
2021/10/11 01:22:32;;;;;;;15.03;9.70;;;;;;;1.97;100.00;97064.91;4955613;28;20465;-77
2021/10/11 01:25:04;;;;;;;17.63;11.40;;;;;;;2.05;100.00;97057.53;4944961;28;20533;-77
2021/10/11 01:27:30;;;;;;;18.40;9.90;;;;;;;1.99;100.00;97063.06;4958700;28;20443;-77
2021/10/11 01:29:56;;;;;;;14.73;9.37;;;;;;;2.04;100.00;97055.00;4943751;28;20450;-76
2021/10/11 01:32:37;;;;;;;16.87;9.90;;;;;;;2.08;100.00;97052.19;4945664;28;20035;-76
2021/10/11 01:35:03;;;;;;;15.90;9.63;;;;;;;2.12;100.00;97045.06;4959446;28;21041;-81
2021/10/11 01:37:29;;;;;;;14.70;9.33;;;;;;;2.20;100.00;97047.19;4952337;28;20796;-81
2021/10/11 01:40:26;;;;;;;14.87;9.47;;;;;;;2.13;100.00;97044.13;4965833;28;20438;-81
2021/10/11 01:42:52;;;;;;;16.67;10.23;;;;;;;2.03;100.00;97049.00;4967329;28;20453;-81
2021/10/11 01:45:18;;;;;;;14.20;9.60;;;;;;;2.07;100.00;97050.47;4940873;28;21304;-81
2021/10/11 01:47:54;;;;;;;16.47;8.70;;;;;;;1.94;100.00;97049.50;4984384;28;20457;-81
2021/10/11 01:50:20;;;;;;;18.33;9.80;;;;;;;1.88;100.00;97049.88;4947096;28;21023;-81
2021/10/11 01:52:45;;;;;;;18.23;10.53;;;;;;;1.79;100.00;97047.78;4962821;28;20470;-81
2021/10/11 01:55:11;;;;;;;16.90;10.03;;;;;;;1.77;100.00;97055.63;4964842;28;20039;-81
2021/10/11 01:57:52;;;;;;;17.67;10.20;;;;;;;1.72;100.00;97052.47;4940116;28;20024;-80
2021/10/11 02:00:19;;;;;;;16.63;9.90;;;;;;;1.48;100.00;97046.03;4954333;28;20104;-81
2021/10/11 02:02:45;;;;;;;17.20;10.73;;;;;;;1.51;100.00;97038.06;4940235;28;20590;-82
2021/10/11 02:05:11;;;;;;;18.57;9.90;;;;;;;1.72;100.00;97038.69;4958437;28;20500;-81
2021/10/11 02:07:37;;;;;;;17.87;10.23;;;;;;;1.79;100.00;97040.00;4974267;28;20031;-81
2021/10/11 02:10:07;;;;;;;18.07;10.97;;;;;;;1.67;100.00;97036.31;4986118;28;21029;-81
2021/10/11 02:12:33;;;;;;;15.43;9.93;;;;;;;1.68;100.00;97032.81;4982707;28;20520;-81
2021/10/11 02:15:04;;;;;;;17.57;10.43;;;;;;;1.71;100.00;97036.97;4977904;28;20998;-81
2021/10/11 02:17:30;;;;;;;15.70;9.83;;;;;;;1.61;100.00;97031.47;4958103;28;20457;-81
2021/10/11 02:19:56;;;;;;;16.33;9.27;;;;;;;1.58;100.00;97034.25;4943929;28;20466;-81
2021/10/11 02:22:21;;;;;;;19.23;10.47;;;;;;;1.61;100.00;97037.50;4962876;28;20056;-81
2021/10/11 02:24:47;;;;;;;21.23;9.10;;;;;;;1.59;100.00;97023.78;4980758;28;20073;-81
2021/10/11 02:27:21;;;;;;;16.90;9.53;;;;;;;1.65;100.00;97026.03;4951638;28;20042;-81
2021/10/11 02:29:47;;;;;;;17.63;10.20;;;;;;;1.62;100.00;97022.78;4940886;28;20042;-81
2021/10/11 02:32:33;;;;;;;16.03;10.43;;;;;;;1.59;100.00;97021.19;4963012;28;20979;-81
2021/10/11 02:34:58;;;;;;;15.03;9.10;;;;;;;1.46;100.00;97022.78;4955215;28;20465;-81
2021/10/11 02:37:25;;;;;;;13.87;9.50;;;;;;;1.45;100.00;97015.94;4970999;28;20916;-81
2021/10/11 02:39:53;;;;;;;15.77;8.93;;;;;;;1.45;100.00;97015.94;4963123;28;20069;-81
2021/10/11 02:42:25;;;;;;;16.07;9.97;;;;;;;1.44;100.00;97018.59;4975050;28;20446;-80
2021/10/11 02:44:52;;;;;;;14.63;9.33;;;;;;;1.47;100.00;97019.25;4983361;28;20524;-81
2021/10/11 02:47:18;;;;;;;17.97;11.23;;;;;;;1.55;100.00;97005.91;4963905;28;20458;-81
2021/10/11 02:49:44;;;;;;;18.07;10.37;;;;;;;1.63;100.00;97001.13;4958493;28;20909;-81
2021/10/11 02:52:10;;;;;;;16.80;9.70;;;;;;;1.67;100.00;96999.19;4957926;28;20039;-81
2021/10/11 02:54:35;;;;;;;16.07;10.00;;;;;;;1.67;100.00;96986.22;4976445;28;20101;-81
2021/10/11 02:57:17;;;;;;;18.33;9.40;;;;;;;1.79;100.00;96993.31;4953391;28;20984;-81
2021/10/11 02:59:43;;;;;;;17.80;10.53;;;;;;;1.78;100.00;96991.66;4943730;28;20432;-81
2021/10/11 03:02:10;;;;;;;16.43;9.97;;;;;;;1.75;100.00;96991.84;4964368;28;20453;-81
2021/10/11 03:04:35;;;;;;;17.03;10.50;;;;;;;1.68;100.00;96996.53;4949953;28;20050;-81
2021/10/11 03:07:01;;;;;;;20.30;10.60;;;;;;;1.73;100.00;96996.25;4942987;28;20473;-81
2021/10/11 03:09:33;;;;;;;15.27;9.53;;;;;;;1.71;100.00;97009.31;4963519;28;20039;-82
2021/10/11 03:11:59;;;;;;;14.20;9.50;;;;;;;1.71;100.00;97014.50;4948086;28;20042;-81
2021/10/11 03:14:24;;;;;;;19.50;9.83;;;;;;;1.75;100.00;97009.97;4939537;28;20450;-81
2021/10/11 03:16:50;;;;;;;20.87;10.83;;;;;;;1.67;100.00;97012.97;4963488;28;20125;-81
2021/10/11 03:19:16;;;;;;;21.20;10.30;;;;;;;1.63;100.00;97009.72;4959055;28;20034;-81
2021/10/11 03:21:42;;;;;;;16.67;9.60;;;;;;;1.63;100.00;97006.31;4944836;28;20118;-81
2021/10/11 03:24:07;;;;;;;18.20;10.50;;;;;;;1.66;100.00;97008.72;4956740;28;20855;-81
2021/10/11 03:26:33;;;;;;;19.83;11.07;;;;;;;1.61;100.00;97013.31;4981806;28;20034;-81
2021/10/11 03:28:59;;;;;;;18.97;10.43;;;;;;;1.56;100.00;97016.19;4943918;28;21026;-81
2021/10/11 03:31:25;;;;;;;19.43;9.93;;;;;;;1.40;100.00;97016.16;4960906;28;20044;-81
2021/10/11 03:33:50;;;;;;;19.93;10.97;;;;;;;1.37;100.00;97018.09;4958912;28;20178;-81
2021/10/11 03:36:16;;;;;;;20.17;11.57;;;;;;;1.50;100.00;97016.50;4958476;28;20042;-81
2021/10/11 03:38:58;;;;;;;19.40;11.40;;;;;;;1.57;100.00;97011.81;4944591;28;20045;-81
2021/10/11 03:41:24;;;;;;;22.13;13.80;;;;;;;1.53;100.00;97018.94;4954613;28;20062;-81
2021/10/11 03:43:49;;;;;;;18.17;11.83;;;;;;;1.43;100.00;97015.19;4954809;28;20481;-81
2021/10/11 03:46:15;;;;;;;19.87;12.60;;;;;;;1.41;100.00;97014.44;4952007;28;20066;-81
2021/10/11 03:48:41;;;;;;;17.60;11.60;;;;;;;1.51;100.00;97015.59;4946896;28;20816;-81
2021/10/11 03:51:06;;;;;;;21.60;13.30;;;;;;;1.48;100.00;97018.38;4978425;28;20043;-81
2021/10/11 03:53:32;;;;;;;19.30;11.43;;;;;;;1.47;100.00;97016.66;4960380;28;20668;-81
2021/10/11 03:56:02;;;;;;;17.93;11.27;;;;;;;1.34;100.00;97018.25;4956007;28;20106;-81
2021/10/11 03:58:28;;;;;;;20.03;11.53;;;;;;;1.38;100.00;97019.78;4958020;28;20122;-81
2021/10/11 04:00:53;;;;;;;20.07;11.73;;;;;;;1.33;100.00;97006.22;4943200;28;20526;-81
2021/10/11 04:03:21;;;;;;;22.53;12.70;;;;;;;1.31;100.00;97008.91;4945856;28;20026;-81
2021/10/11 04:05:47;;;;;;;19.07;11.70;;;;;;;1.40;100.00;97008.41;4957736;28;20753;-81
2021/10/11 04:08:14;;;;;;;25.80;13.83;;;;;;;1.35;100.00;97001.81;4954993;28;20473;-81
2021/10/11 04:11:23;;;;;;;22.20;14.03;;;;;;;1.40;100.00;97004.97;4972115;28;20138;-82
2021/10/11 04:13:29;;;;;;;22.40;12.50;;;;;;;1.36;100.00;96996.53;4962061;28;20481;-81
2021/10/11 04:15:55;;;;;;;21.90;12.33;;;;;;;1.30;100.00;96988.25;4937508;28;20477;-81
2021/10/11 04:18:22;;;;;;;20.67;13.03;;;;;;;1.34;100.00;96988.03;4954345;28;20535;-81
2021/10/11 04:20:48;;;;;;;23.47;13.97;;;;;;;1.33;100.00;96991.50;4958907;28;20835;-81
2021/10/11 04:23:14;;;;;;;20.50;12.10;;;;;;;1.32;100.00;96983.84;4953731;28;21099;-81
2021/10/11 04:25:43;;;;;;;22.90;12.93;;;;;;;1.33;100.00;96975.13;4950767;28;20478;-81
2021/10/11 04:28:11;;;;;;;18.70;12.80;;;;;;;1.31;100.00;96971.81;4946142;29;21062;-81
2021/10/11 04:30:38;;;;;;;20.50;12.77;;;;;;;1.22;100.00;96967.97;4952812;28;20476;-81
2021/10/11 04:33:04;;;;;;;23.40;15.83;;;;;;;1.17;100.00;96954.41;4937971;28;21003;-81
2021/10/11 04:35:30;;;;;;;21.90;13.57;;;;;;;1.23;100.00;96958.41;4957016;28;20445;-81
2021/10/11 04:37:56;;;;;;;24.93;13.17;;;;;;;1.14;100.00;96970.97;4945857;28;20454;-81
2021/10/11 04:40:26;;;;;;;22.87;13.07;;;;;;;1.10;100.00;96966.84;4937557;28;20673;-81
2021/10/11 04:42:53;;;;;;;19.80;12.07;;;;;;;1.13;100.00;96971.88;4940120;28;20065;-81
2021/10/11 04:45:20;;;;;;;20.00;12.17;;;;;;;1.12;100.00;96977.16;4941060;28;20469;-81
2021/10/11 04:47:46;;;;;;;20.27;12.67;;;;;;;1.13;100.00;96969.28;4959575;28;20461;-81
2021/10/11 04:50:12;;;;;;;21.37;13.73;;;;;;;1.22;100.00;96969.72;4954026;28;20880;-81
2021/10/11 04:52:38;;;;;;;22.03;14.63;;;;;;;1.31;100.00;96971.81;4937842;28;20057;-81
2021/10/11 04:55:04;;;;;;;21.03;13.43;;;;;;;1.32;100.00;96976.06;4944086;28;20034;-81
2021/10/11 04:57:29;;;;;;;21.77;12.67;;;;;;;1.31;100.00;96974.41;4954750;28;20031;-81
2021/10/11 05:00:04;;;;;;;35.63;22.67;;;;;;;1.19;100.00;96991.44;4945742;28;20535;-82
2021/10/11 05:02:32;;;;;;;25.87;18.43;;;;;;;1.26;100.00;96999.72;4954476;28;20037;-82
2021/10/11 05:05:04;;;;;;;23.50;13.83;;;;;;;1.25;100.00;96998.06;4955188;28;20574;-81
2021/10/11 05:07:32;;;;;;;25.20;15.63;;;;;;;1.33;100.00;96988.91;4948879;28;21421;-81
2021/10/11 05:09:59;;;;;;;26.43;16.33;;;;;;;1.42;100.00;96990.19;4938690;28;20478;-81
2021/10/11 05:12:25;;;;;;;32.70;18.43;;;;;;;1.50;100.00;96987.16;4933816;28;21058;-82
2021/10/11 05:14:55;;;;;;;34.07;21.83;;;;;;;1.45;100.00;96984.84;4951786;28;20450;-82
2021/10/11 05:17:20;;;;;;;48.67;27.63;;;;;;;1.46;100.00;96991.69;4936732;28;20038;-83
2021/10/11 05:19:46;;;;;;;49.73;28.67;;;;;;;1.58;100.00;96993.59;4952301;28;20856;-82
2021/10/11 05:22:12;;;;;;;47.80;29.63;;;;;;;1.58;100.00;96996.19;4939551;28;20078;-81
2021/10/11 05:24:41;;;;;;;44.80;26.30;;;;;;;1.48;100.00;96986.44;4939443;28;20030;-82
2021/10/11 05:27:09;;;;;;;32.00;18.23;;;;;;;1.52;100.00;96988.75;4952729;28;20494;-82
2021/10/11 05:29:37;;;;;;;24.83;15.67;;;;;;;1.56;100.00;96995.44;4971297;28;20469;-82
2021/10/11 05:32:07;;;;;;;25.40;16.97;;;;;;;1.61;100.00;97002.94;4955995;28;20474;-82
2021/10/11 05:34:33;;;;;;;26.97;17.27;;;;;;;1.67;100.00;97002.63;4974892;28;20465;-82
2021/10/11 05:37:13;;;;;;;31.77;19.17;;;;;;;1.45;100.00;97008.16;4953773;28;20533;-82
2021/10/11 05:39:40;;;;;;;30.03;17.63;;;;;;;1.38;100.00;97005.06;4985504;28;20034;-82
2021/10/11 05:42:15;;;;;;;26.03;18.17;;;;;;;1.42;100.00;97011.75;4940232;29;20455;-82
2021/10/11 05:44:40;;;;;;;28.83;16.93;;;;;;;1.43;100.00;97015.19;4947849;28;20489;-82
2021/10/11 05:47:09;;;;;;;23.63;15.67;;;;;;;1.52;100.00;97009.50;4954603;28;20474;-81
2021/10/11 05:49:35;;;;;;;26.77;16.33;;;;;;;1.65;100.00;97005.31;4940479;28;20035;-81
2021/10/11 05:52:01;;;;;;;26.07;17.47;;;;;;;2.00;100.00;96997.28;4944491;28;20467;-82
2021/10/11 05:54:28;;;;;;;37.47;18.47;;;;;;;2.18;100.00;97010.13;4955221;28;20455;-82
2021/10/11 05:56:56;;;;;;;101.73;47.00;;;;;;;2.39;100.00;97019.28;4941705;28;20515;-82
2021/10/11 05:59:22;;;;;;;107.67;51.60;;;;;;;2.73;100.00;97019.88;4960216;28;20500;-82
2021/10/11 06:01:48;;;;;;;76.30;37.50;;;;;;;2.86;100.00;97022.56;4943287;28;20461;-83
2021/10/11 06:04:29;;;;;;;84.30;45.23;;;;;;;3.10;100.00;97015.88;4947889;28;20478;-83
2021/10/11 06:07:02;;;;;;;86.63;43.97;;;;;;;3.38;100.00;97024.56;4957607;28;20034;-84
2021/10/11 06:09:28;;;;;;;39.92;21.50;;;;;;;3.24;100.00;97043.63;4958291;28;20469;-84
2021/10/11 06:11:57;;;;;;;28.67;16.57;;;;;;;3.53;99.70;97045.25;4955629;28;20026;-84
2021/10/11 06:14:47;;;;;;;20.60;12.70;;;;;;;2.96;99.86;97045.31;4958953;28;20030;-84
2021/10/11 06:17:13;;;;;;;22.23;13.17;;;;;;;3.10;99.89;97046.22;4957386;28;20518;-84
2021/10/11 06:19:38;;;;;;;19.37;12.17;;;;;;;2.96;100.00;97050.50;4936133;28;20670;-84
2021/10/11 06:22:04;;;;;;;20.07;11.50;;;;;;;3.11;100.00;97048.72;4951735;28;20031;-84
2021/10/11 06:24:30;;;;;;;20.63;12.60;;;;;;;3.31;100.00;97047.50;4933366;28;20592;-84
2021/10/11 06:26:57;;;;;;;22.07;14.00;;;;;;;3.45;100.00;97052.69;4951453;28;20065;-84
2021/10/11 06:29:24;;;;;;;24.97;15.93;;;;;;;3.64;100.00;97051.56;4951811;28;20501;-84
2021/10/11 06:31:50;;;;;;;28.60;18.33;;;;;;;4.06;100.00;97039.31;4939703;28;20559;-84
2021/10/11 06:34:15;;;;;;;36.83;19.47;;;;;;;4.06;98.67;97044.53;4952952;28;20043;-83
2021/10/11 06:36:42;;;;;;;28.70;18.17;;;;;;;4.21;97.95;97035.75;4961278;28;20126;-84
2021/10/11 06:39:08;;;;;;;29.50;17.60;;;;;;;4.79;96.52;97039.66;4974145;28;20031;-83
2021/10/11 06:41:33;;;;;;;28.00;16.80;;;;;;;5.23;94.17;97043.66;4940776;28;20437;-83
2021/10/11 06:43:59;;;;;;;32.30;16.27;;;;;;;5.48;91.21;97037.53;4934959;28;20038;-83
2021/10/11 06:46:33;;;;;;;26.37;13.90;;;;;;;5.42;90.73;97036.19;4956760;28;20034;-83
2021/10/11 06:48:58;;;;;;;;;;;;;;;5.27;93.22;97045.09;4942686;28;20029;-83
2021/10/11 06:51:24;;;;;;;22.50;12.70;;;;;;;5.91;89.67;97050.97;4931130;28;19918;-83
2021/10/11 06:53:50;;;;;;;32.77;14.30;;;;;;;5.52;91.44;97044.19;4943902;28;20038;-83
2021/10/11 06:56:17;;;;;;;20.73;13.13;;;;;;;6.14;86.98;97045.91;4938692;28;20034;-83
2021/10/11 06:58:42;;;;;;;23.27;12.77;;;;;;;5.98;89.36;97047.97;4975258;28;20054;-83
2021/10/11 07:01:12;;;;;;;20.80;11.63;;;;;;;5.97;88.20;97046.28;4945506;28;20022;-83
2021/10/11 07:03:43;;;;;;;20.00;13.57;;;;;;;5.93;88.92;97044.84;4939112;28;20125;-83
2021/10/11 07:06:18;;;;;;;18.10;12.10;;;;;;;6.05;85.90;97043.97;4974286;28;20034;-83
2021/10/11 07:08:44;;;;;;;18.83;12.33;;;;;;;6.68;83.58;97041.94;4971210;28;20037;-83
2021/10/11 07:11:10;;;;;;;19.30;12.03;;;;;;;7.04;82.93;97033.91;4952841;28;20039;-83
2021/10/11 07:13:36;;;;;;;21.10;11.23;;;;;;;7.24;81.55;97035.00;4958693;28;20038;-83
2021/10/11 07:16:04;;;;;;;18.77;11.23;;;;;;;7.94;76.49;97040.84;4951661;28;20485;-83
2021/10/11 07:18:33;;;;;;;18.80;10.93;;;;;;;8.05;77.22;97035.59;4935469;28;20031;-83
2021/10/11 07:20:59;;;;;;;18.30;11.20;;;;;;;8.74;75.18;97030.75;4954701;28;20813;-84
2021/10/11 07:23:29;;;;;;;17.73;10.87;;;;;;;8.45;75.11;97037.59;4964127;28;20108;-84
2021/10/11 07:25:59;;;;;;;18.87;11.43;;;;;;;8.19;77.16;97042.34;4936973;29;20032;-76
2021/10/11 07:28:27;;;;;;;26.43;13.17;;;;;;;7.55;79.89;97058.78;4937996;28;20073;-77
2021/10/11 07:30:53;;;;;;;22.77;12.47;;;;;;;7.23;82.05;97056.84;4953798;28;20062;-77
2021/10/11 07:33:20;;;;;;;21.63;13.37;;;;;;;7.38;82.29;97047.00;4954309;28;20093;-77
2021/10/11 07:35:46;;;;;;;19.37;12.00;;;;;;;7.49;82.48;97038.31;4929755;28;20041;-76
2021/10/11 07:38:13;;;;;;;22.93;12.90;;;;;;;8.16;80.15;97043.41;4951572;28;20042;-77
2021/10/11 07:40:39;;;;;;;19.87;11.10;;;;;;;8.59;78.05;97037.31;4951794;28;20026;-76
2021/10/11 07:43:06;;;;;;;19.53;11.00;;;;;;;9.06;75.66;97040.38;4936609;28;20040;-77
2021/10/11 07:45:32;;;;;;;21.10;11.83;;;;;;;9.54;74.12;97042.34;4946251;28;20401;-77
2021/10/11 07:47:58;;;;;;;20.67;11.30;;;;;;;9.34;72.91;97048.50;4936578;28;20035;-76
2021/10/11 07:50:25;;;;;;;20.17;11.90;;;;;;;10.27;71.65;97048.22;4935571;28;20034;-77
2021/10/11 07:52:51;;;;;;;18.50;11.60;;;;;;;11.02;68.64;97046.63;4945728;28;20058;-76
2021/10/11 07:55:16;;;;;;;17.93;11.37;;;;;;;10.27;69.73;97047.41;4929554;28;20501;-77
2021/10/11 07:57:43;;;;;;;22.13;12.37;;;;;;;10.96;69.33;97052.47;4937233;28;20414;-77
2021/10/11 08:00:25;;;;;;;18.90;11.20;;;;;;;10.84;69.76;97061.50;4962519;28;20379;-77
2021/10/11 08:02:51;;;;;;;18.77;12.53;;;;;;;11.61;66.86;97051.72;4949552;28;20555;-77
2021/10/11 08:05:16;;;;;;;17.73;12.37;;;;;;;11.57;65.96;97051.19;4950638;28;20030;-77
2021/10/11 08:07:43;;;;;;;19.00;12.93;;;;;;;12.14;66.22;97043.97;4944731;28;20085;-77
2021/10/11 08:10:10;;;;;;;17.13;13.37;;;;;;;11.94;65.84;97048.53;4954067;28;20030;-77
2021/10/11 08:12:46;;;;;;;20.40;11.67;;;;;;;12.49;63.42;97042.31;4935039;28;20122;-77
2021/10/11 08:15:11;;;;;;;38.87;29.93;;;;;;;12.67;62.61;97053.69;4940994;28;20038;-77
2021/10/11 08:17:44;;;;;;;18.60;13.87;;;;;;;12.15;63.76;97061.44;4954766;28;20029;-77
2021/10/11 08:20:11;;;;;;;16.67;11.63;;;;;;;12.38;63.08;97051.28;4957071;28;20034;-78
2021/10/11 08:22:37;;;;;;;19.27;11.60;;;;;;;12.66;61.64;97046.75;4935274;28;20037;-77
2021/10/11 08:25:04;;;;;;;18.20;12.03;;;;;;;12.73;61.66;97054.88;4935398;28;20367;-77
2021/10/11 08:27:30;;;;;;;18.33;12.53;;;;;;;13.38;61.12;97050.09;4934780;28;20561;-77
2021/10/11 08:29:56;;;;;;;18.40;11.03;;;;;;;13.73;60.07;97048.28;4939796;28;20153;-77
2021/10/11 08:32:24;;;;;;;23.30;12.87;;;;;;;13.91;60.08;97046.34;4947495;28;20170;-77
2021/10/11 08:34:51;;;;;;;19.23;11.83;;;;;;;13.48;61.30;97057.91;4934966;28;20497;-77
2021/10/11 08:37:17;;;;;;;16.10;11.77;;;;;;;12.85;62.76;97060.78;4935559;28;20019;-76
2021/10/11 08:39:43;;;;;;;16.93;12.30;;;;;;;13.31;61.08;97057.00;4934487;28;20457;-77
2021/10/11 08:42:16;;;;;;;16.57;12.27;;;;;;;12.50;63.22;97050.06;4953505;28;20045;-76
2021/10/11 08:44:42;;;;;;;17.10;12.32;;;;;;;13.09;61.99;97057.47;4973120;28;20045;-77
2021/10/11 08:47:10;;;;;;;17.50;12.83;;;;;;;12.67;63.62;97051.03;4952366;28;20023;-78
2021/10/11 08:49:41;;;;;;;19.10;13.57;;;;;;;12.95;61.93;97057.06;4934381;28;20040;-77
2021/10/11 08:52:06;;;;;;;19.53;13.27;;;;;;;12.85;61.92;97053.69;4970693;28;20374;-77
2021/10/11 08:54:34;;;;;;;18.97;12.17;;;;;;;12.24;64.73;97034.19;4950624;28;20057;-77
2021/10/11 08:57:00;;;;;;;16.90;12.13;;;;;;;13.09;63.20;97042.47;4947427;28;20073;-77
2021/10/11 08:59:28;;;;;;;18.70;13.50;;;;;;;12.56;62.78;97048.66;4948628;28;20097;-77
2021/10/11 09:02:08;;;;;;;17.97;13.20;;;;;;;13.05;62.39;97050.84;4949597;28;20042;-76
2021/10/11 09:04:47;;;;;;;18.90;13.10;;;;;;;13.18;61.79;97048.63;4955701;28;20734;-77
2021/10/11 09:07:13;;;;;;;18.77;13.17;;;;;;;13.93;60.19;97048.03;4942458;28;20397;-77
2021/10/11 09:09:45;;;;;;;20.53;14.47;;;;;;;13.98;60.47;97043.06;4952360;28;20039;-77
2021/10/11 09:12:22;;;;;;;27.10;16.13;;;;;;;13.55;61.62;97042.28;4955063;28;20549;-77
2021/10/11 09:15:09;;;;;;;28.23;13.53;;;;;;;14.21;58.85;97036.19;4935790;28;20081;-76
2021/10/11 09:17:42;;;;;;;20.73;13.30;;;;;;;13.95;59.50;97035.47;4956089;28;20486;-77
2021/10/11 09:20:20;;;;;;;20.42;14.43;;;;;;;13.67;61.16;97033.06;4948574;28;20027;-76
2021/10/11 09:22:49;;;;;;;19.67;13.53;;;;;;;13.97;60.24;97025.56;4940780;28;20047;-77
2021/10/11 09:25:16;;;;;;;19.63;13.43;;;;;;;14.39;59.10;97028.13;4957959;28;20030;-76
2021/10/11 09:27:47;;;;;;;21.43;13.40;;;;;;;14.60;58.25;97025.03;4954918;28;20437;-76
2021/10/11 09:30:18;;;;;;;19.10;12.57;;;;;;;14.41;58.59;97017.38;4973261;28;20039;-76
2021/10/11 09:32:46;;;;;;;18.80;13.27;;;;;;;15.20;57.01;97016.72;4936828;28;20155;-77
2021/10/11 09:35:21;;;;;;;18.70;12.63;;;;;;;14.75;57.31;97028.66;4952180;28;20042;-77
2021/10/11 09:37:56;;;;;;;18.50;13.57;;;;;;;15.09;56.92;97022.38;4959884;28;20035;-77
2021/10/11 09:40:24;;;;;;;18.60;13.67;;;;;;;15.45;56.33;97024.59;4943039;28;20045;-77
2021/10/11 09:43:20;;;;;;;16.53;12.20;;;;;;;15.94;54.70;97011.19;4958558;28;20027;-77
2021/10/11 09:45:50;;;;;;;18.53;12.00;;;;;;;16.03;53.69;97007.50;4936611;28;20030;-76
2021/10/11 09:48:18;;;;;;;16.13;11.55;;;;;;;15.16;53.58;97018.06;4946971;28;20046;-76
2021/10/11 09:51:53;;;;;;;18.00;12.50;;;;;;;15.50;54.63;97023.09;4958790;28;20035;-77
2021/10/11 09:54:19;;;;;;;17.85;12.82;;;;;;;15.39;54.77;97017.31;4949844;28;20144;-77
2021/10/11 09:56:46;;;;;;;21.15;13.23;;;;;;;15.67;54.64;97018.59;4948755;28;20067;-77
2021/10/11 09:59:13;;;;;;;21.23;13.30;;;;;;;15.27;55.82;97020.34;4952644;28;20052;-76
2021/10/11 10:01:47;;;;;;;15.23;11.65;;;;;;;15.67;54.99;97015.94;4958825;28;20105;-76
2021/10/11 10:04:15;;;;;;;20.42;13.05;;;;;;;15.90;55.06;97015.19;4944298;28;20042;-77
2021/10/11 10:06:42;;;;;;;21.40;14.02;;;;;;;15.18;54.69;97013.41;4979388;28;20717;-76
2021/10/11 10:09:10;;;;;;;18.33;13.57;;;;;;;15.83;54.10;97011.53;4969168;28;20034;-76
2021/10/11 10:11:36;;;;;;;18.90;12.75;;;;;;;16.04;53.94;97003.81;4952409;28;20026;-76
2021/10/11 10:14:21;;;;;;;16.88;12.27;;;;;;;15.97;53.05;97008.19;4956092;28;20105;-76
2021/10/11 10:16:52;;;;;;;18.95;13.07;;;;;;;16.54;51.79;96999.84;4976926;28;20038;-77
2021/10/11 10:19:21;;;;;;;17.15;12.68;;;;;;;17.43;49.25;96989.38;4941437;28;20038;-77
2021/10/11 10:21:47;;;;;;;18.20;12.35;;;;;;;16.77;51.22;96994.56;4956331;28;20030;-77
2021/10/11 10:24:27;;;;;;;19.90;14.25;;;;;;;15.88;53.06;96988.00;4971106;28;20042;-76
2021/10/11 10:27:13;;;;;;;18.50;13.65;;;;;;;15.83;52.74;96983.22;4953755;28;20681;-77
2021/10/11 10:29:44;;;;;;;21.30;13.05;;;;;;;16.49;51.97;96980.94;4959930;28;20409;-77
2021/10/11 10:32:11;;;;;;;16.05;11.82;;;;;;;16.84;50.46;96986.69;4975226;28;20403;-77
2021/10/11 10:34:37;;;;;;;18.10;12.18;;;;;;;15.91;51.87;96982.34;4963426;28;20137;-77
2021/10/11 10:37:11;;;;;;;19.00;11.93;;;;;;;16.32;52.01;96984.75;4939747;28;20050;-77
2021/10/11 10:39:46;;;;;;;16.05;11.95;;;;;;;16.22;52.57;96991.09;4974062;28;20680;-77
2021/10/11 10:42:29;;;;;;;19.08;13.68;;;;;;;16.99;51.14;96981.38;4951269;28;20445;-76
2021/10/11 10:44:57;;;;;;;19.20;13.13;;;;;;;15.95;53.09;96978.34;4958340;28;20030;-77
2021/10/11 10:47:36;;;;;;;19.10;12.23;;;;;;;16.58;50.08;96966.63;4963997;28;20023;-77
2021/10/11 10:50:09;;;;;;;19.75;13.82;;;;;;;16.66;50.49;96973.69;4951447;28;20034;-77
2021/10/11 10:52:35;;;;;;;;;;;;;;;16.82;50.14;96970.09;4959942;28;20114;-77
2021/10/11 10:55:01;;;;;;;14.70;11.60;;;;;;;16.60;51.11;96977.03;4966951;28;20013;-77
2021/10/11 10:57:30;;;;;;;18.25;11.77;;;;;;;17.01;50.08;96963.44;4968999;28;20042;-77
2021/10/11 11:00:02;;;;;;;17.13;11.88;;;;;;;16.00;51.63;96968.88;4944397;28;20019;-77
2021/10/11 11:02:31;;;;;;;16.45;11.85;;;;;;;16.31;50.57;96967.16;4955325;28;20667;-77
2021/10/11 11:05:04;;;;;;;15.80;11.82;;;;;;;16.71;50.96;96980.13;4931299;28;20019;-77
2021/10/11 11:07:34;;;;;;;17.63;12.85;;;;;;;16.81;50.35;96963.97;4960289;28;20034;-76
2021/10/11 11:10:22;;;;;;;18.23;12.82;;;;;;;17.04;49.79;96966.56;4958249;28;20400;-76
2021/10/11 11:13:00;;;;;;;20.05;12.27;;;;;;;16.81;50.22;96971.09;4954893;28;20460;-77
2021/10/11 11:15:32;;;;;;;18.35;12.27;;;;;;;17.11;50.08;96971.97;4937532;28;20038;-76
2021/10/11 11:18:14;;;;;;;16.83;11.38;;;;;;;16.79;50.79;96970.44;4960122;28;20150;-76
2021/10/11 11:20:42;;;;;;;16.45;11.13;;;;;;;16.65;49.57;96964.88;4950568;28;20050;-77
2021/10/11 11:23:10;;;;;;;16.58;10.80;;;;;;;17.31;48.06;96945.69;4951284;28;20037;-76
2021/10/11 11:25:40;;;;;;;17.77;11.90;;;;;;;17.39;48.70;96943.72;4942489;28;20097;-76
2021/10/11 11:28:08;;;;;;;18.23;10.73;;;;;;;17.51;48.87;96938.78;4944632;28;20104;-76